Fredericksburg, TX

8:40 PM CST on December 17, 2014 (GMT -0600)
Kerrville Municipal-Schreiner | Change Station
CLOSE
Current Station
Airport
Location: Kerrville,
Elevation: 1617 ft
Nearby Weather Stations

Elev 1617 ft 29.98 °N, 99.09 °W | Updated 25 minutes ago

Fog
Fog
51 °F
Feels Like 51 °F
N
0
Wind Variable Wind from North

Today
High -- | Low -- °F
--% Chance of Precip.
Yesterday
High -- | Low -- °F
Precip. -- in
7:25 AM 5:37 PM
Waning Crescent, 18% visible
Pressure 30.09 in
Visibility 5.0 miles
Clouds Overcast 500 ft
Dew Point 50 °F
Humidity 96%
Rainfall 0.14 in
Snow Depth Not available.
UV 0 out of 12
Pollen 7.40 out of 12
Air Quality Not available.
Flu Activity Not available.
METAR KERV 180215Z AUTO 00000KT 5SM BR OVC005 11/10 A3009 RMK AO2 T01060100

More Conditions Fewer Conditions

Pressure 30.09 in
Visibility 5.0 miles
Clouds Overcast 500 ft
Dew Point 50 °F
Humidity 96%
Rainfall 0.14 in
Snow Depth Not available.
UV 0 out of 12
Pollen 7.40 out of 12
Air Quality Not available.
Flu Activity Not available.
METAR KERV 180215Z AUTO 00000KT 5SM BR OVC005 11/10 A3009 RMK AO2 T01060100

More Conditions Fewer Conditions

Nowcast | as of 6:55 PM CST on December 17, 2014

Through 9 PM...patchy light drizzle and rain will move northeast across south central Texas. Spotty rainfall amounts of a few hundredths of an inch are possible. Patchy fog will continue to develop across the region with visibilities generally 3 to 5 miles. Motorists should exercise caution and slow down in areas of fog as visibilities may drop rapidly. Remember to use the low beam headlights in areas of fog.

×

10-Day Weather Forecast

Almanac

Astronomy

Dec. 17, 2014 Rise Set
Actual Time
Civil Twilight
Nautical Twilight
Astronomical Twilight
Moon
Length of Visible Light
Length of Day
Tomorrow will be .
, % of the Moon is Illuminated

Today's Extremes

State Highs State Lows

Community

WunderPhotos

Upload Photos

1,778,871 photos uploaded!

WunderBlogs® & News

Nearby

Air Quality

  Air Quality AQ Index Pollutant
Not available.

Snow Depth

Station Depth Elevation

Earthquake Activity

City Distance Mag. Time & Date
Minimum magnitude displayed is 2.5.

Coastal Water Temperatures

Place Temperature

Nearby Weather Stations